Time;durP1;ratioP1;P1;durP2;ratioP2;P2;SDS_P1;SDS_P2;PMS_P1;PMS_P2;Temp;Humidity;BMP_temperature;BMP_pressure;BME280_temperature;BME280_humidity;BME280_pressure;Samples;Min_cycle;Max_cycle;Signal;HPM_P1;HPM_P2
2022/07/04 00:02:03;;;;;;;6.88;3.67;;;;;;;15.32;65.87;101979.31;5010712;28;20025;-56
2022/07/04 00:04:28;;;;;;;6.30;3.70;;;;;;;15.29;66.83;101974.91;5011700;28;20176;-56
2022/07/04 00:06:54;;;;;;;4.45;3.28;;;;;;;15.26;67.35;101968.69;5010997;28;20034;-53
2022/07/04 00:09:19;;;;;;;5.68;3.90;;;;;;;15.21;67.72;101970.34;5011213;28;20060;-52
2022/07/04 00:11:44;;;;;;;5.93;3.92;;;;;;;15.19;67.82;101965.03;5011951;28;20053;-53
2022/07/04 00:14:10;;;;;;;7.10;4.43;;;;;;;15.15;67.88;101970.19;5011930;28;20056;-52
2022/07/04 00:16:35;;;;;;;7.00;4.03;;;;;;;15.11;68.27;101962.25;5012790;28;20469;-52
2022/07/04 00:19:01;;;;;;;5.93;4.07;;;;;;;15.08;68.73;101967.44;5009705;28;20040;-52
2022/07/04 00:21:26;;;;;;;5.40;3.70;;;;;;;15.08;68.58;101964.81;5011707;28;20396;-53
2022/07/04 00:23:51;;;;;;;6.78;4.35;;;;;;;15.09;68.33;101955.19;5012301;28;20033;-52
2022/07/04 00:26:17;;;;;;;4.88;3.70;;;;;;;15.08;68.50;101958.69;5012306;28;20029;-54
2022/07/04 00:28:43;;;;;;;7.35;4.05;;;;;;;15.06;67.94;101961.28;5011106;28;20040;-52
2022/07/04 00:31:08;;;;;;;6.88;3.70;;;;;;;15.07;68.41;101957.78;5010980;28;20032;-53
2022/07/04 00:33:33;;;;;;;7.85;3.53;;;;;;;15.06;68.50;101960.38;5010843;28;20030;-53
2022/07/04 00:35:59;;;;;;;5.03;3.60;;;;;;;15.06;67.92;101971.78;5012562;28;20469;-52
2022/07/04 00:38:24;;;;;;;5.05;3.38;;;;;;;15.06;67.80;101960.38;5011112;28;20045;-56
2022/07/04 00:40:50;;;;;;;5.68;3.35;;;;;;;15.04;67.65;101962.97;5010682;28;20156;-55
2022/07/04 00:43:26;;;;;;;6.78;3.42;;;;;;;15.02;67.40;101969.00;5009390;28;20091;-57
2022/07/04 00:45:51;;;;;;;5.68;3.85;;;;;;;14.97;67.76;101965.41;5011701;28;20053;-56
2022/07/04 00:48:18;;;;;;;5.22;3.45;;;;;;;14.96;67.69;101964.50;5010328;28;20116;-56
2022/07/04 00:50:45;;;;;;;6.88;3.53;;;;;;;14.93;67.94;101967.97;5011919;28;20033;-57
2022/07/04 00:53:11;;;;;;;6.20;3.33;;;;;;;14.89;68.12;101962.63;5010232;28;20022;-57
2022/07/04 00:55:38;;;;;;;5.93;3.78;;;;;;;14.86;68.30;101959.88;5011261;28;20106;-56
2022/07/04 00:58:03;;;;;;;9.75;4.07;;;;;;;14.87;68.40;101964.28;5010004;28;20068;-56
2022/07/04 01:00:29;;;;;;;6.57;3.72;;;;;;;14.82;68.57;101960.69;5010929;28;20485;-56
2022/07/04 01:02:54;;;;;;;6.95;4.78;;;;;;;14.80;68.32;101959.75;5011296;28;20025;-56
2022/07/04 01:05:20;;;;;;;6.07;4.10;;;;;;;14.82;67.96;101958.06;5009723;28;22204;-56
2022/07/04 01:07:46;;;;;;;7.82;4.22;;;;;;;14.82;67.82;101960.69;5010665;28;20026;-57
2022/07/04 01:10:11;;;;;;;5.55;3.80;;;;;;;14.78;68.09;101954.47;5011326;28;20021;-56
2022/07/04 01:12:37;;;;;;;6.38;3.88;;;;;;;14.73;68.13;101943.88;5010647;28;20595;-56
2022/07/04 01:15:02;;;;;;;5.90;3.55;;;;;;;14.72;68.21;101946.47;5008976;28;20037;-56
2022/07/04 01:17:28;;;;;;;6.40;4.10;;;;;;;14.72;68.03;101942.09;5010716;28;20033;-57
2022/07/04 01:19:53;;;;;;;7.38;4.32;;;;;;;14.67;68.57;101941.09;5009573;28;20503;-56
2022/07/04 01:22:20;;;;;;;6.45;3.80;;;;;;;14.67;68.97;101943.72;5008328;28;20022;-56
2022/07/04 01:24:45;;;;;;;7.40;4.20;;;;;;;14.65;68.83;101944.53;5011180;28;20539;-57
2022/07/04 01:27:10;;;;;;;6.95;3.95;;;;;;;14.62;68.99;101937.47;5009794;28;20037;-56
2022/07/04 01:29:36;;;;;;;8.43;4.43;;;;;;;14.62;68.54;101937.47;5009849;28;20033;-56
2022/07/04 01:32:08;;;;;;;6.45;4.22;;;;;;;14.60;68.44;101931.28;5010406;28;20054;-56
2022/07/04 01:34:34;;;;;;;6.47;4.07;;;;;;;14.57;68.21;101926.84;5010965;28;20049;-56
2022/07/04 01:37:01;;;;;;;9.93;4.53;;;;;;;14.56;68.22;101932.06;5009660;28;20021;-56
2022/07/04 01:39:27;;;;;;;6.38;4.22;;;;;;;14.54;68.33;101934.63;5008607;28;20041;-56
2022/07/04 01:41:53;;;;;;;5.85;3.92;;;;;;;14.52;67.55;101928.44;5009461;28;20018;-56
2022/07/04 01:44:18;;;;;;;6.30;4.10;;;;;;;14.51;68.00;101924.06;5009470;28;20443;-56
2022/07/04 01:46:43;;;;;;;6.53;3.65;;;;;;;14.47;68.33;101921.31;5011144;28;20053;-56
2022/07/04 01:49:09;;;;;;;6.40;3.53;;;;;;;14.41;68.01;101917.72;5010997;28;20041;-56
2022/07/04 01:51:34;;;;;;;6.35;3.65;;;;;;;14.32;68.05;101920.06;5008445;28;20028;-57
2022/07/04 01:54:00;;;;;;;5.28;3.38;;;;;;;14.27;68.00;101929.56;5010990;28;20040;-56
2022/07/04 01:56:25;;;;;;;6.45;3.75;;;;;;;14.22;68.50;101920.69;5009591;28;20373;-56
2022/07/04 01:58:51;;;;;;;5.95;4.00;;;;;;;14.16;68.44;101915.28;5009428;28;20560;-56
2022/07/04 02:01:31;;;;;;;6.50;3.88;;;;;;;14.09;69.00;101917.75;5009365;28;20040;-56
2022/07/04 02:03:59;;;;;;;6.88;3.90;;;;;;;14.05;69.27;101909.78;5009701;28;20052;-56
2022/07/04 02:06:25;;;;;;;7.50;4.00;;;;;;;14.03;68.74;101915.00;5008435;28;20030;-56
2022/07/04 02:14:18;;;;;;;7.53;4.10;;;;;;;13.95;70.12;101915.59;5007421;28;20061;-56
2022/07/04 02:16:44;;;;;;;7.47;4.30;;;;;;;13.88;70.13;101920.69;5006135;28;20125;-52
2022/07/04 02:19:10;;;;;;;6.75;4.28;;;;;;;13.85;70.36;101914.50;5009215;28;20116;-51
2022/07/04 02:21:36;;;;;;;6.28;4.50;;;;;;;13.81;70.67;101916.13;5008963;28;20109;-53
2022/07/04 02:24:01;;;;;;;5.82;4.00;;;;;;;13.79;70.62;101914.28;5009713;28;20323;-52
2022/07/04 02:26:26;;;;;;;6.70;4.07;;;;;;;13.77;70.59;101914.25;5010080;28;20511;-53
2022/07/04 02:28:52;;;;;;;5.63;3.97;;;;;;;13.74;70.47;101917.72;5009046;28;20030;-52
2022/07/04 02:31:17;;;;;;;6.45;4.00;;;;;;;13.74;70.18;101916.78;5014548;28;20440;-52
2022/07/04 02:33:42;;;;;;;7.97;4.60;;;;;;;13.72;70.17;101926.34;5014250;28;20057;-54
2022/07/04 02:36:08;;;;;;;8.25;4.65;;;;;;;13.72;70.13;101926.34;5008895;28;20034;-53
2022/07/04 02:38:33;;;;;;;6.47;4.22;;;;;;;13.70;69.66;101921.06;5009049;28;20026;-52
2022/07/04 02:40:58;;;;;;;8.05;4.00;;;;;;;13.66;70.16;101916.59;5010033;28;20033;-52
2022/07/04 02:43:24;;;;;;;5.95;4.10;;;;;;;13.66;70.17;101929.69;5008990;28;20501;-52
2022/07/04 02:45:49;;;;;;;10.43;4.72;;;;;;;13.63;70.68;101932.22;5009279;28;20444;-54
2022/07/04 02:48:14;;;;;;;7.07;4.00;;;;;;;13.59;70.97;101927.75;5008754;28;20069;-56
2022/07/04 02:50:40;;;;;;;6.32;4.15;;;;;;;13.59;71.00;101926.88;5008087;28;20036;-56
2022/07/04 02:53:05;;;;;;;6.63;4.07;;;;;;;13.60;70.46;101926.00;5008870;28;20022;-56
2022/07/04 02:55:30;;;;;;;6.88;4.53;;;;;;;13.57;70.81;101922.47;5008774;28;20033;-56
2022/07/04 02:57:56;;;;;;;6.70;4.32;;;;;;;13.55;71.23;101916.28;5009181;28;20053;-56
2022/07/04 03:00:21;;;;;;;10.27;4.72;;;;;;;13.56;71.33;101932.91;5008969;28;20025;-56
2022/07/04 03:02:46;;;;;;;8.52;4.50;;;;;;;13.54;71.15;101929.31;5008605;28;20034;-57
2022/07/04 03:05:12;;;;;;;9.57;4.90;;;;;;;13.51;71.06;101932.75;5009387;28;20096;-56
2022/07/04 03:07:37;;;;;;;9.73;4.78;;;;;;;13.52;70.93;101936.25;5008518;28;20504;-56
2022/07/04 03:10:03;;;;;;;9.70;4.50;;;;;;;13.49;71.06;101937.06;5008628;28;20105;-57
2022/07/04 03:12:28;;;;;;;6.55;4.43;;;;;;;13.48;70.72;101942.25;5007739;28;20038;-56
2022/07/04 03:14:53;;;;;;;7.10;4.25;;;;;;;13.49;70.84;101941.41;5009579;28;20033;-57
2022/07/04 03:17:19;;;;;;;8.23;4.57;;;;;;;13.47;71.39;101940.47;5009124;28;20037;-52
2022/07/04 03:19:44;;;;;;;7.55;4.45;;;;;;;13.46;71.40;101946.56;5007886;28;20022;-50
2022/07/04 03:22:10;;;;;;;8.38;4.45;;;;;;;13.44;71.52;101949.13;5010514;28;20026;-52
2022/07/04 03:24:35;;;;;;;8.32;4.18;;;;;;;13.44;71.63;101956.09;5012122;28;20029;-53
2022/07/04 03:27:01;;;;;;;7.65;4.68;;;;;;;13.39;71.59;101950.72;5011992;28;20041;-51
2022/07/04 03:29:26;;;;;;;9.32;4.72;;;;;;;13.38;71.63;101948.94;5012812;28;20064;-51
2022/07/04 03:31:51;;;;;;;9.20;4.82;;;;;;;13.37;71.67;101955.91;5013299;28;20025;-52
2022/07/04 03:34:17;;;;;;;7.22;4.55;;;;;;;13.36;71.65;101954.13;5010838;28;20451;-52
2022/07/04 03:36:42;;;;;;;10.60;4.70;;;;;;;13.36;71.49;101955.88;5011471;28;20034;-52
2022/07/04 03:39:08;;;;;;;10.20;4.65;;;;;;;13.35;71.57;101954.06;5011180;28;20041;-52
2022/07/04 03:41:33;;;;;;;7.90;4.63;;;;;;;13.35;71.37;101956.69;5011618;28;20049;-52
2022/07/04 03:43:58;;;;;;;8.65;4.55;;;;;;;13.34;71.49;101958.44;5012902;28;20026;-53
2022/07/04 03:46:24;;;;;;;8.77;4.30;;;;;;;13.33;71.47;101963.59;5011500;28;20026;-57
2022/07/04 03:48:49;;;;;;;7.47;4.30;;;;;;;13.33;71.39;101974.94;5011928;28;20161;-56
2022/07/04 03:51:15;;;;;;;7.75;4.50;;;;;;;13.30;71.54;101971.34;5011097;28;20101;-56
2022/07/04 03:53:42;;;;;;;7.78;4.57;;;;;;;13.30;71.90;101984.44;5011205;28;20041;-56
2022/07/04 03:56:08;;;;;;;7.53;4.60;;;;;;;13.28;71.96;101981.78;5011776;28;20034;-56
2022/07/04 03:58:33;;;;;;;7.13;4.47;;;;;;;13.28;72.13;101984.41;5011661;28;20064;-57
2022/07/04 04:00:59;;;;;;;7.30;4.57;;;;;;;13.28;72.12;101984.41;5012784;28;20058;-54
2022/07/04 04:06:08;;;;;;;6.90;4.50;;;;;;;13.28;72.14;101986.13;5011474;28;20132;-56
2022/07/04 04:08:34;;;;;;;7.68;4.68;;;;;;;13.29;71.84;101987.91;5011230;28;20460;-57
2022/07/04 04:10:59;;;;;;;6.78;4.57;;;;;;;13.27;72.08;101987.84;5011355;28;20473;-56
2022/07/04 04:13:24;;;;;;;7.60;4.43;;;;;;;13.27;72.26;101981.75;5012873;28;20022;-56
2022/07/04 04:15:50;;;;;;;9.57;4.60;;;;;;;13.26;73.06;101977.34;5012008;28;20490;-56
2022/07/04 04:18:15;;;;;;;7.28;4.60;;;;;;;13.24;73.73;101974.69;5010459;28;20036;-56
2022/07/04 04:20:41;;;;;;;8.45;4.75;;;;;;;13.22;74.37;101977.25;5010947;28;20026;-56
2022/07/04 04:23:06;;;;;;;7.20;4.30;;;;;;;13.20;74.04;101988.50;5012253;28;20060;-56
2022/07/04 04:25:32;;;;;;;9.38;5.25;;;;;;;13.20;74.70;102001.59;5011664;28;20108;-56
2022/07/04 04:27:57;;;;;;;8.43;4.97;;;;;;;13.20;74.36;101998.97;5011185;28;20496;-51
2022/07/04 04:30:23;;;;;;;11.35;5.80;;;;;;;13.19;75.76;102008.56;5011539;28;20469;-52
2022/07/04 04:32:48;;;;;;;13.80;6.15;;;;;;;13.21;75.46;102004.25;5010942;28;20022;-51
2022/07/04 04:35:13;;;;;;;16.67;6.45;;;;;;;13.22;75.97;102005.13;5011326;28;20120;-52
2022/07/04 04:37:39;;;;;;;11.68;5.80;;;;;;;13.24;76.31;102013.94;5010076;28;20049;-53
2022/07/04 04:40:05;;;;;;;13.15;5.88;;;;;;;13.23;77.00;102009.53;5011144;28;20052;-51
2022/07/04 04:42:31;;;;;;;9.68;5.70;;;;;;;13.26;76.01;102012.25;5011759;28;20034;-51
2022/07/04 04:44:56;;;;;;;9.35;5.55;;;;;;;13.28;75.95;102013.19;5010174;28;20029;-51
2022/07/04 04:47:21;;;;;;;10.48;6.20;;;;;;;13.29;77.15;102009.72;5012333;28;20257;-51
2022/07/04 04:49:47;;;;;;;9.75;5.75;;;;;;;13.32;77.07;102006.31;5010860;28;20026;-51
2022/07/04 04:52:13;;;;;;;10.90;5.90;;;;;;;13.32;77.49;101999.34;5010837;28;20065;-50
2022/07/04 04:54:38;;;;;;;9.10;5.85;;;;;;;13.33;77.68;101998.50;5011288;28;20033;-51
2022/07/04 04:57:04;;;;;;;11.50;5.88;;;;;;;13.34;77.85;101983.72;5011049;28;20067;-52
2022/07/04 04:59:30;;;;;;;9.68;6.10;;;;;;;13.36;78.04;101998.63;5010390;28;20026;-51
2022/07/04 05:01:59;;;;;;;11.15;6.00;;;;;;;13.38;77.96;101991.72;5009711;28;20078;-51
2022/07/04 05:04:25;;;;;;;11.52;6.05;;;;;;;13.41;78.28;101990.03;5010211;28;20053;-51
2022/07/04 05:06:52;;;;;;;10.90;5.88;;;;;;;13.44;78.70;101990.13;5009790;28;20037;-51
2022/07/04 05:09:17;;;;;;;12.75;6.20;;;;;;;13.45;78.87;101990.16;5010790;28;20083;-52
2022/07/04 05:11:43;;;;;;;10.95;5.90;;;;;;;13.48;79.03;101992.88;5010195;28;20053;-52
2022/07/04 05:14:08;;;;;;;10.75;6.28;;;;;;;13.52;78.95;101989.50;5008315;28;20083;-49
2022/07/04 05:16:33;;;;;;;12.57;5.97;;;;;;;13.53;79.15;101987.78;5003289;28;20397;-51
2022/07/04 05:19:00;;;;;;;11.25;6.28;;;;;;;13.59;79.70;101992.34;5011291;28;20044;-49
2022/07/04 05:21:28;;;;;;;11.40;6.30;;;;;;;13.60;79.24;101992.38;5009865;28;20101;-51
2022/07/04 05:23:53;;;;;;;13.18;6.55;;;;;;;13.62;79.38;101984.56;5009759;28;20033;-51
2022/07/04 05:26:19;;;;;;;10.60;6.68;;;;;;;13.65;79.28;101985.53;5008937;28;20095;-56
2022/07/04 05:28:44;;;;;;;13.43;6.53;;;;;;;13.69;79.28;101990.00;5008171;28;20041;-56
2022/07/04 05:31:09;;;;;;;13.15;6.60;;;;;;;13.73;79.37;101984.03;5006885;28;20344;-56
2022/07/04 05:33:35;;;;;;;15.82;6.75;;;;;;;13.76;79.00;101991.09;5017708;28;20045;-56
2022/07/04 05:36:00;;;;;;;12.82;7.05;;;;;;;13.80;79.68;101992.06;5009757;28;20022;-56
2022/07/04 05:38:25;;;;;;;14.27;7.68;;;;;;;13.85;80.07;101995.72;5010553;28;20091;-57
2022/07/04 05:40:50;;;;;;;13.02;6.80;;;;;;;13.89;79.79;102001.06;5009825;28;20062;-56
2022/07/04 05:43:16;;;;;;;16.63;7.15;;;;;;;13.94;80.78;102006.44;5009287;28;20524;-56
2022/07/04 05:45:41;;;;;;;13.20;7.05;;;;;;;13.98;80.66;102000.44;5009566;28;20037;-56
2022/07/04 05:48:07;;;;;;;15.32;7.20;;;;;;;14.01;80.30;102008.38;5008900;28;20038;-56
2022/07/04 05:50:32;;;;;;;17.95;7.20;;;;;;;14.06;79.96;102004.19;5015490;28;20044;-56
2022/07/04 05:52:57;;;;;;;16.05;7.50;;;;;;;14.11;80.40;102006.00;5013784;28;20053;-56
2022/07/04 05:55:23;;;;;;;15.57;6.40;;;;;;;14.17;80.50;102000.97;5010672;28;20025;-55
2022/07/04 05:57:48;;;;;;;12.85;6.90;;;;;;;14.22;80.83;102002.88;5014474;28;20116;-50
2022/07/04 06:00:14;;;;;;;14.38;6.53;;;;;;;14.27;80.65;102009.09;5008615;28;20032;-50
2022/07/04 06:02:41;;;;;;;14.80;6.80;;;;;;;14.34;80.29;102012.78;5016982;28;20117;-51
2022/07/04 06:05:07;;;;;;;12.85;7.28;;;;;;;14.43;80.62;102014.78;5019934;28;20049;-51
2022/07/04 06:07:32;;;;;;;12.02;6.78;;;;;;;14.52;80.98;102011.50;5011032;28;20063;-50
2022/07/04 06:09:58;;;;;;;13.80;7.22;;;;;;;14.63;80.77;102014.41;5009682;28;20042;-52
2022/07/04 06:12:23;;;;;;;15.43;6.82;;;;;;;14.71;79.76;102019.00;5009331;28;20010;-50
2022/07/04 06:14:48;;;;;;;14.32;7.82;;;;;;;14.80;80.72;102014.84;5010345;28;20101;-51
2022/07/04 06:17:13;;;;;;;16.13;8.95;;;;;;;14.88;79.11;102013.31;5010613;28;20018;-50
2022/07/04 06:19:39;;;;;;;12.90;6.93;;;;;;;14.95;78.64;102010.88;5010431;28;20478;-49
2022/07/04 06:22:04;;;;;;;12.45;7.28;;;;;;;15.04;79.33;102004.94;5009497;28;20029;-51
2022/07/04 06:24:29;;;;;;;14.68;7.97;;;;;;;15.13;79.37;102009.53;5009218;28;20021;-51
2022/07/04 06:26:55;;;;;;;13.25;7.32;;;;;;;15.23;78.82;102013.28;5008691;28;20551;-52
2022/07/04 06:29:20;;;;;;;16.73;8.18;;;;;;;15.28;77.87;102009.03;5009868;28;20515;-52
2022/07/04 06:31:45;;;;;;;18.00;8.30;;;;;;;15.34;78.34;102010.88;5010500;28;20846;-52
2022/07/04 06:36:54;;;;;;;15.07;8.30;;;;;;;15.48;78.15;102012.97;5011114;28;20064;-52
2022/07/04 06:39:20;;;;;;;17.08;8.73;;;;;;;15.55;78.07;102006.09;5012299;28;20108;-52
2022/07/04 06:41:45;;;;;;;16.13;8.27;;;;;;;15.62;77.37;102007.13;5020170;28;20048;-51
2022/07/04 06:44:10;;;;;;;15.27;8.02;;;;;;;15.69;77.34;102011.66;5017470;28;20253;-51
2022/07/04 06:46:36;;;;;;;13.35;7.72;;;;;;;15.78;77.29;102017.13;5010032;28;20030;-51
2022/07/04 06:49:01;;;;;;;16.98;7.90;;;;;;;15.86;76.73;102017.31;5010496;28;20030;-52
2022/07/04 06:51:26;;;;;;;16.40;8.77;;;;;;;15.95;76.66;102013.97;5009466;28;20428;-51
2022/07/04 06:53:52;;;;;;;14.75;8.32;;;;;;;15.99;75.66;102023.72;5010017;28;20029;-52
2022/07/04 06:56:18;;;;;;;13.68;7.63;;;;;;;16.06;76.46;102028.25;5010082;28;20097;-52
2022/07/04 06:58:43;;;;;;;17.42;9.10;;;;;;;16.10;75.55;102019.53;5010464;28;20017;-51
2022/07/04 07:01:08;;;;;;;15.88;8.60;;;;;;;16.14;75.18;102013.47;5010272;28;20029;-52
2022/07/04 07:03:34;;;;;;;15.18;7.63;;;;;;;16.17;74.50;102012.66;5009321;28;20029;-52
2022/07/04 07:05:59;;;;;;;12.13;7.28;;;;;;;16.20;74.83;102003.94;5009576;28;20139;-51
2022/07/04 07:08:26;;;;;;;12.52;7.70;;;;;;;16.23;74.31;102004.00;5010139;28;20100;-52
2022/07/04 07:10:51;;;;;;;12.50;7.00;;;;;;;16.27;75.14;101995.31;5009932;28;20452;-52
2022/07/04 07:13:17;;;;;;;15.38;7.35;;;;;;;16.36;74.85;102000.72;5009191;28;20089;-52
2022/07/04 07:15:42;;;;;;;16.08;7.43;;;;;;;16.51;75.70;102008.00;5010386;28;20033;-52
2022/07/04 07:18:07;;;;;;;9.90;5.97;;;;;;;16.58;73.83;102001.13;5010112;28;20378;-52
2022/07/04 07:20:33;;;;;;;10.13;5.40;;;;;;;16.66;73.32;102010.91;5009494;28;20034;-51
2022/07/04 07:23:01;;;;;;;12.25;5.00;;;;;;;16.74;71.93;101997.00;5010048;28;20022;-51
2022/07/04 07:25:26;;;;;;;10.77;4.50;;;;;;;16.84;70.72;101988.38;5009966;28;20061;-51
2022/07/04 07:27:51;;;;;;;11.45;5.25;;;;;;;16.94;70.82;102000.00;5009238;28;20064;-52
2022/07/04 07:30:17;;;;;;;10.68;5.13;;;;;;;16.95;70.82;102010.53;5009986;28;20116;-53
2022/07/04 07:32:42;;;;;;;13.43;6.68;;;;;;;16.97;71.19;102003.53;5010225;28;20034;-53
2022/07/04 07:35:07;;;;;;;11.40;6.53;;;;;;;17.03;71.50;102013.28;5010066;28;20022;-52
2022/07/04 07:37:33;;;;;;;11.25;6.05;;;;;;;17.07;71.31;102007.22;5010119;28;20037;-52
2022/07/04 07:39:58;;;;;;;9.95;5.53;;;;;;;17.14;72.05;102018.75;5008928;28;20026;-52
2022/07/04 07:42:25;;;;;;;11.27;4.38;;;;;;;17.19;70.81;102015.31;5009292;28;20072;-53
2022/07/04 07:44:50;;;;;;;8.05;3.83;;;;;;;17.29;69.82;102018.06;5009777;28;20413;-51
2022/07/04 07:47:15;;;;;;;9.50;3.95;;;;;;;17.35;67.88;102008.53;5009761;28;20030;-51
2022/07/04 07:49:44;;;;;;;7.95;3.50;;;;;;;17.43;69.47;102000.72;5009856;28;20014;-52
2022/07/04 07:52:10;;;;;;;11.40;3.50;;;;;;;17.52;68.66;102003.50;5009620;28;20026;-53
2022/07/04 07:54:35;;;;;;;7.80;3.83;;;;;;;17.60;67.17;101998.31;5008911;28;20026;-53
2022/07/04 07:57:01;;;;;;;9.52;3.70;;;;;;;17.66;66.98;101997.50;5009581;28;20142;-54
2022/07/04 07:59:26;;;;;;;8.43;3.45;;;;;;;17.75;67.43;101991.47;5009659;28;20072;-53
2022/07/04 08:01:51;;;;;;;7.68;3.17;;;;;;;17.80;65.98;101985.38;5008886;28;20489;-53
2022/07/04 08:04:35;;;;;;;7.90;3.50;;;;;;;17.86;64.87;101985.44;5009562;28;20038;-49
2022/07/04 08:07:14;;;;;;;7.82;3.22;;;;;;;17.92;64.25;101986.44;5011424;28;20493;-56
2022/07/04 08:09:39;;;;;;;7.88;3.10;;;;;;;17.98;64.46;101987.38;5010413;28;20112;-56
2022/07/04 08:12:07;;;;;;;7.88;3.17;;;;;;;18.06;65.20;101988.34;5012339;28;20125;-56
2022/07/04 08:14:33;;;;;;;8.15;3.25;;;;;;;18.11;64.36;101984.88;5012938;28;20026;-56
2022/07/04 08:16:58;;;;;;;6.65;3.17;;;;;;;18.18;63.94;101994.63;5013094;28;20033;-56
2022/07/04 08:19:24;;;;;;;4.95;2.92;;;;;;;18.26;64.80;101992.94;5012821;28;20468;-56
2022/07/04 08:21:50;;;;;;;8.63;3.58;;;;;;;18.30;62.63;102001.78;5012679;28;20477;-56
2022/07/04 08:24:16;;;;;;;8.75;3.88;;;;;;;18.36;62.58;101996.56;5011875;28;20049;-56
2022/07/04 08:26:42;;;;;;;8.20;3.40;;;;;;;18.48;64.23;101999.34;5012871;28;20076;-56
2022/07/04 08:29:08;;;;;;;9.52;4.25;;;;;;;18.54;63.22;102003.78;5012771;28;20061;-56
2022/07/04 08:31:33;;;;;;;9.52;3.85;;;;;;;18.63;64.59;102008.25;5011827;28;20500;-56
2022/07/04 08:33:59;;;;;;;7.40;3.47;;;;;;;18.69;64.89;102005.66;5012008;28;20030;-56
2022/07/04 08:36:24;;;;;;;7.28;3.05;;;;;;;18.77;64.27;102003.97;5011351;28;20060;-56
2022/07/04 08:38:49;;;;;;;8.00;3.00;;;;;;;18.83;62.89;102004.03;5012460;28;20064;-55
2022/07/04 08:41:16;;;;;;;7.55;3.58;;;;;;;18.90;65.29;102005.88;5012353;28;20021;-56
2022/07/04 08:43:42;;;;;;;9.43;4.00;;;;;;;18.99;64.82;102006.78;5012177;28;20504;-56
2022/07/04 08:46:09;;;;;;;9.80;4.10;;;;;;;19.08;65.91;102009.53;5010986;28;20057;-56
2022/07/04 08:48:37;;;;;;;7.10;4.07;;;;;;;19.16;64.70;102007.81;5011134;28;20038;-55
2022/07/04 08:51:17;;;;;;;10.07;3.88;;;;;;;19.20;63.38;102009.59;5012458;28;20073;-55
2022/07/04 08:53:50;;;;;;;7.60;3.92;;;;;;;19.26;62.89;102004.38;5012351;28;20125;-55
2022/07/04 08:59:03;;;;;;;7.82;3.67;;;;;;;19.42;62.61;102007.97;5011704;28;20028;-56
2022/07/04 09:01:30;;;;;;;8.07;3.20;;;;;;;19.50;62.16;102015.94;5012095;28;20042;-56
2022/07/04 09:03:56;;;;;;;7.85;3.40;;;;;;;19.60;63.20;102012.47;5011419;28;20092;-56
2022/07/04 09:06:23;;;;;;;6.82;3.63;;;;;;;19.66;62.21;102014.25;5012128;28;20108;-53
2022/07/04 09:08:49;;;;;;;7.65;3.58;;;;;;;19.73;61.69;102012.53;5012208;28;20021;-53
2022/07/04 09:11:14;;;;;;;7.38;3.70;;;;;;;19.83;63.59;102009.09;5011021;28;20022;-49
2022/07/04 09:13:40;;;;;;;5.85;3.03;;;;;;;19.87;61.99;102010.88;5011140;28;20511;-50
2022/07/04 09:16:05;;;;;;;8.93;2.80;;;;;;;19.93;61.53;102012.66;5012124;28;20164;-48
2022/07/04 09:18:33;;;;;;;10.13;3.10;;;;;;;19.98;60.72;102008.25;5011886;28;20079;-46
2022/07/04 09:21:01;;;;;;;7.25;3.10;;;;;;;20.06;60.25;102013.53;5011969;28;20100;-47
2022/07/04 09:23:29;;;;;;;6.43;3.08;;;;;;;20.12;60.53;102016.22;5011831;28;20030;-49
2022/07/04 09:26:07;;;;;;;7.15;3.20;;;;;;;20.20;59.92;102010.94;5010957;28;20083;-52
2022/07/04 09:28:33;;;;;;;6.53;2.95;;;;;;;20.27;60.43;102010.09;5011262;28;20058;-52
2022/07/04 09:30:59;;;;;;;7.88;2.90;;;;;;;20.34;61.75;102009.22;5011030;28;20129;-51
2022/07/04 09:33:47;;;;;;;7.65;2.90;;;;;;;20.45;60.96;102010.13;5011557;28;20113;-48
2022/07/04 09:36:22;;;;;;;9.23;3.87;;;;;;;20.54;59.70;102017.19;5010700;28;20030;-52
2022/07/04 09:39:19;;;;;;;7.63;3.58;;;;;;;20.63;60.56;102011.88;5011415;28;20037;-50
2022/07/04 09:41:59;;;;;;;7.55;3.80;;;;;;;20.68;59.24;102006.63;5011372;28;20022;-53
2022/07/04 09:44:42;;;;;;;8.38;3.72;;;;;;;20.74;59.10;102008.38;5010536;28;20045;-53
2022/07/04 09:47:28;;;;;;;8.10;3.30;;;;;;;20.82;60.26;101996.91;5011406;28;20125;-51
2022/07/04 09:50:01;;;;;;;10.13;3.75;;;;;;;20.87;58.64;101994.28;5011242;28;20493;-53
2022/07/04 09:52:27;;;;;;;7.43;3.38;;;;;;;20.96;58.73;102002.19;5010478;28;20045;-53
2022/07/04 09:54:58;;;;;;;8.18;3.20;;;;;;;21.06;60.41;101997.78;5008444;28;20030;-48
2022/07/04 09:57:23;;;;;;;8.55;3.20;;;;;;;21.10;58.60;101996.00;5010211;28;20033;-53
2022/07/04 09:59:48;;;;;;;5.88;3.00;;;;;;;21.18;58.58;102002.16;5011485;28;20026;-55
2022/07/04 10:02:14;;;;;;;8.10;3.42;;;;;;;21.25;57.99;101995.97;5010178;28;20473;-54
2022/07/04 10:04:51;;;;;;;8.70;3.50;;;;;;;21.35;58.11;102000.34;5010968;28;20049;-54
2022/07/04 10:07:38;;;;;;;9.15;3.67;;;;;;;21.46;58.53;101999.44;5011099;28;20084;-56
2022/07/04 10:10:33;;;;;;;7.43;3.72;;;;;;;21.54;56.44;101993.25;5010986;28;20025;-56
2022/07/04 10:13:08;;;;;;;8.30;3.70;;;;;;;21.59;56.30;101990.56;5011055;28;20109;-55
2022/07/04 10:15:36;;;;;;;5.88;3.13;;;;;;;21.70;58.41;101996.72;5010050;28;20108;-55
2022/07/04 10:18:03;;;;;;;9.82;3.90;;;;;;;21.79;55.64;101990.50;5011351;28;20033;-56
2022/07/04 10:20:28;;;;;;;7.18;3.60;;;;;;;21.84;54.89;101987.81;5009376;28;20061;-55
2022/07/04 10:22:53;;;;;;;11.25;3.90;;;;;;;21.91;56.10;101993.97;5011042;28;20126;-56
2022/07/04 10:25:19;;;;;;;8.65;3.85;;;;;;;21.92;55.55;101985.16;5010788;28;20065;-57
2022/07/04 10:27:44;;;;;;;10.93;3.80;;;;;;;21.97;56.17;101980.69;5010924;28;20030;-57
2022/07/04 10:30:16;;;;;;;9.18;3.95;;;;;;;21.98;55.48;101983.31;5009203;28;20029;-57
2022/07/04 10:32:44;;;;;;;8.20;3.97;;;;;;;21.99;55.54;101974.47;5010804;28;20053;-57
2022/07/04 10:35:13;;;;;;;6.47;3.50;;;;;;;22.09;57.28;101977.06;5010698;28;20025;-56
2022/07/04 10:38:09;;;;;;;7.97;3.75;;;;;;;22.15;56.19;101972.59;5010625;28;20489;-54
2022/07/04 10:40:50;;;;;;;6.70;3.80;;;;;;;22.20;55.23;101976.13;5009699;28;20033;-55
2022/07/04 10:43:24;;;;;;;8.50;3.22;;;;;;;22.24;54.26;101969.00;5009973;28;20036;-54
2022/07/04 10:45:51;;;;;;;7.40;3.47;;;;;;;22.30;53.63;101968.94;5010569;28;20029;-55
2022/07/04 10:48:20;;;;;;;10.63;3.67;;;;;;;22.37;52.51;101970.69;5010444;28;20563;-55
2022/07/04 10:50:58;;;;;;;7.45;3.60;;;;;;;22.45;52.73;101968.00;5010439;28;20604;-54
2022/07/04 10:53:24;;;;;;;6.85;3.10;;;;;;;22.51;53.01;101962.63;5009435;28;20021;-54
2022/07/04 10:55:49;;;;;;;7.50;3.72;;;;;;;22.52;51.80;101960.84;5009904;28;20024;-55
2022/07/04 10:58:42;;;;;;;6.75;3.33;;;;;;;22.64;53.06;101960.75;5009507;28;20029;-55
2022/07/04 11:01:14;;;;;;;6.85;3.92;;;;;;;22.74;53.78;101959.78;5000239;28;20567;-55
2022/07/04 11:03:48;;;;;;;8.07;4.03;;;;;;;22.87;54.58;101959.63;5010270;28;20053;-55
2022/07/04 11:06:32;;;;;;;10.98;4.13;;;;;;;22.91;52.22;101956.97;5009151;28;20026;-55
2022/07/04 11:09:16;;;;;;;7.03;3.70;;;;;;;22.85;52.31;101964.09;5010048;28;20055;-56
2022/07/04 11:11:49;;;;;;;5.88;3.95;;;;;;;22.73;51.80;101960.66;5006252;28;20493;-56
2022/07/04 11:14:35;;;;;;;7.00;3.60;;;;;;;22.69;52.89;101961.59;5008867;28;20037;-55
2022/07/04 11:17:01;;;;;;;7.22;3.50;;;;;;;22.61;52.10;101963.44;5008502;28;20097;-56
2022/07/04 11:19:27;;;;;;;6.85;3.65;;;;;;;22.60;52.69;101963.47;5009711;28;20020;-56
2022/07/04 11:21:57;;;;;;;7.35;3.95;;;;;;;22.57;52.94;101967.03;5008537;28;20021;-56
2022/07/04 11:24:23;;;;;;;7.00;4.20;;;;;;;22.54;51.83;101959.09;5007107;28;20116;-54
2022/07/04 11:26:49;;;;;;;6.78;4.10;;;;;;;22.49;51.87;101955.56;5008394;28;20037;-56
2022/07/04 11:29:14;;;;;;;7.35;3.95;;;;;;;22.53;51.64;101960.84;5013799;28;20033;-56
2022/07/04 11:31:42;;;;;;;6.85;3.60;;;;;;;22.61;52.42;101957.22;5008815;28;20029;-56
2022/07/04 11:34:09;;;;;;;6.15;3.60;;;;;;;22.67;52.33;101955.41;5010028;28;20124;-55
2022/07/04 11:36:34;;;;;;;9.35;4.65;;;;;;;22.67;49.60;101947.44;5009469;28;20024;-56